createdAt,value
2023-09-23T00:12:45.903Z,100.00
2023-09-23T00:27:47.569Z,98.31
2023-09-23T00:42:49.342Z,100.00
2023-09-23T00:57:54.752Z,100.00
2023-09-23T01:12:57.761Z,100.00
2023-09-23T01:27:59.429Z,100.00
2023-09-23T01:43:01.179Z,100.00
2023-09-23T01:58:03.094Z,100.00
2023-09-23T02:13:04.909Z,100.00
2023-09-23T02:28:06.958Z,100.00
2023-09-23T02:43:08.918Z,100.00
2023-09-23T02:58:11.637Z,100.00
2023-09-23T03:13:13.685Z,100.00
2023-09-23T03:28:18.815Z,100.00
2023-09-23T03:43:20.789Z,100.00
2023-09-23T03:58:22.576Z,100.00
2023-09-23T04:13:24.219Z,100.00
2023-09-23T04:28:25.940Z,100.00
2023-09-23T04:43:30.057Z,100.00
2023-09-23T04:58:32.447Z,100.00
2023-09-23T05:13:34.211Z,100.00
2023-09-23T05:28:35.853Z,100.00
2023-09-23T05:43:37.493Z,100.00
2023-09-23T05:58:39.204Z,100.00
2023-09-23T06:13:41.032Z,100.00
2023-09-23T06:28:42.684Z,99.54
2023-09-23T06:43:44.855Z,90.31
2023-09-23T06:58:46.763Z,88.84
2023-09-23T07:13:48.589Z,95.25
2023-09-23T07:28:53.179Z,91.33
2023-09-23T07:43:55.168Z,89.21
2023-09-23T07:58:57.355Z,85.09
2023-09-23T08:13:59.607Z,80.47
2023-09-23T08:29:01.340Z,76.86
2023-09-23T08:44:06.811Z,74.87
2023-09-23T08:59:10.147Z,72.73
2023-09-23T09:14:12.064Z,70.89
2023-09-23T09:29:15.188Z,69.28
2023-09-23T09:44:17.530Z,66.21
2023-09-23T09:59:31.536Z,66.25
2023-09-23T10:14:33.760Z,61.24
2023-09-23T10:29:51.282Z,59.95
2023-09-23T10:44:59.271Z,56.87
2023-09-23T11:00:01.237Z,52.87
2023-09-23T11:15:03.865Z,54.69
2023-09-23T11:30:06.304Z,48.81
2023-09-23T11:45:09.496Z,49.25
2023-09-23T12:00:12.179Z,44.41
2023-09-23T12:15:13.854Z,45.67
2023-09-23T12:30:18.773Z,47.26
2023-09-23T12:45:20.529Z,43.14
2023-09-23T13:00:22.872Z,43.08
2023-09-23T13:15:24.760Z,42.28
2023-09-23T13:30:26.607Z,37.19
2023-09-23T13:45:28.254Z,40.09
2023-09-23T14:00:30.333Z,41.95
2023-09-23T14:15:32.025Z,45.95
2023-09-23T14:30:33.732Z,43.13
2023-09-23T14:45:35.697Z,50.30
2023-09-23T15:00:37.391Z,45.43
2023-09-23T15:15:40.278Z,45.09
2023-09-23T15:30:43.537Z,41.08
2023-09-23T15:45:45.746Z,37.63
2023-09-23T16:00:47.994Z,36.85
2023-09-23T16:15:49.995Z,36.67
2023-09-23T16:30:52.024Z,36.68
2023-09-23T16:45:55.053Z,36.22
2023-09-23T17:00:56.950Z,38.94
2023-09-23T17:15:58.684Z,40.58
2023-09-23T17:31:00.394Z,40.79
2023-09-23T17:46:05.226Z,40.53
2023-09-23T18:01:07.131Z,40.02
2023-09-23T18:16:08.919Z,42.01
2023-09-23T18:31:10.876Z,42.24
2023-09-23T18:46:13.845Z,41.82
2023-09-23T19:01:16.254Z,42.57
2023-09-23T19:16:18.177Z,45.77
2023-09-23T19:31:20.414Z,46.25
2023-09-23T19:46:23.259Z,49.55
2023-09-23T20:01:25.364Z,52.05
2023-09-23T20:16:27.247Z,53.26
2023-09-23T20:31:29.118Z,59.12
2023-09-23T20:46:32.280Z,62.69
2023-09-23T21:01:35.314Z,62.16
2023-09-23T21:16:37.412Z,64.43
2023-09-23T21:31:39.768Z,61.56
2023-09-23T21:46:42.377Z,62.36
2023-09-23T22:01:44.741Z,64.54
2023-09-23T22:16:46.769Z,65.46
2023-09-23T22:31:48.921Z,64.81
2023-09-23T22:46:50.801Z,66.60
2023-09-23T23:01:52.876Z,68.02
2023-09-23T23:16:54.582Z,68.95
2023-09-23T23:31:56.259Z,69.10
2023-09-23T23:46:58.026Z,68.15
